Ana Sayfa
METAR-TAF:

METAR-TAF

Havaalanları :

Şam Havalimanı

Şam, Suriye

Enlem: 33-25N, Boylam: 036-31E, yükseklik: 608 m

Güncel hava durumu gözlemi

Rapor saat 10:00 UTC de 52 dakika önce yapıldı.
Rüzgar kuzeydoğudan 4 kt
Sıcaklık 28°C
Nem 30%
Basınç 1014 hPa
Görüş mesafesi: 7000 m

METAR: OSDI 171000Z 05004KT 7000 28/09 Q1014

Saat: 13:52 (10:52 UTC)

Tahmin

Rapor saat 04:30 UTC de 6 saat ve 22 dakika önce yapıldı.
Ayın 17'si saat 06 UTC'den ayın 18'si saat 12 UTC'ye kadar geçerli Tahmin
Rüzgar güneybatıdan 10 kt
Görüş mesafesi 10 km veya daha fazla
3000 ft yükseklikte az bulutlu
10000 ft yükseklikte parçalı bulutlu
Dönüşüyor
ayın 17'si saat 18 UTC'den ayın 17'si saat 20 UTC'ye kadar
Rüzgar değişken yönden 3 kt
Görüş mesafesi 10 km veya daha fazla
1500 m altında bulut yok ve kümülonimbus yok

TAF: OSDI 170430Z 1706/1812 22010KT 9999 FEW030 SCT100 BECMG 1718/1720 VRB03KT CAVOK

4.000'den fazla havaalanı için hava durumu gözlemleri ve tahminleri (METAR ve TAF raporları).

Kullanılabilir istasyonlar harita üzerinde sarı ve kırmızı noktalarla gösterilir.

İstasyonun adını görmek için fareyi noktanın üzerinde gezdirin.

Sonrasında hava gözlem ve tahminlerini görmek için tıklayın.

Haritayı değiştirmek için: yaklaştırmak için siyah artı işaretli yeşil düğmeye ve uzaklaştırmak için de eksi işaretli düğmeye hızla tıklayın; bitişik haritalar için yeşil okları kullanın.


METAR-TAF: